Caldas, Brazil
Current Conditions -  °F | °C
As of 11:00 PM on Thursday 20 Nov 2014 (Local Time) from SBYS Reporting Station
Clear Clear  
Wind Chill: 73°   Ceiling: Unl
Heat Index: 73°   Visibility: 6mi
Dew Point: 61°   Wind: 5mph
Humidity: 65%   Direction: 240°WSW
Pressure: 30"   Gusts: NA
Location:  21.92°S, 46.39°W
Report Text: SBYS 210100Z 24004KT CAVOK 23/16 Q1016
Loading
Personal Weather Stations






























Interactive Weather Map New forecast layout! Learn more

10-Day Weather Forecast

Advertisements
Track Severe Weather on mobile